Time;durP1;ratioP1;P1;durP2;ratioP2;P2;SDS_P1;SDS_P2;PMS_P1;PMS_P2;Temp;Humidity;BMP_temperature;BMP_pressure;BME280_temperature;BME280_humidity;BME280_pressure;Samples;Min_cycle;Max_cycle;Signal;HPM_P1;HPM_P2
2022/10/08 04:21:22;;;;;;;32.53;29.93;;;15.10;99.90;;;;;;5506036;23;20490;-74
2022/10/08 04:23:49;;;;;;;34.10;30.87;;;15.10;99.90;;;;;;4917929;29;20482;-73
2022/10/08 04:26:16;;;;;;;34.13;30.87;;;15.00;99.90;;;;;;4915988;29;20808;-72
2022/10/08 04:28:44;;;;;;;34.47;30.97;;;14.90;99.90;;;;;;4916273;29;20586;-73
2022/10/08 04:31:16;;;;;;;32.27;29.70;;;15.00;99.90;;;;;;4916070;29;20442;-72
2022/10/08 04:33:44;;;;;;;33.07;29.67;;;14.90;99.90;;;;;;4916224;29;20613;-73
2022/10/08 04:36:12;;;;;;;32.03;29.33;;;14.90;99.90;;;;;;4915511;29;20493;-72
2022/10/08 04:38:41;;;;;;;31.40;29.10;;;14.90;99.90;;;;;;4915119;29;20490;-76
2022/10/08 04:41:10;;;;;;;32.67;30.13;;;15.00;99.90;;;;;;4914997;29;20462;-74
2022/10/08 04:43:38;;;;;;;33.43;30.60;;;15.10;99.90;;;;;;4915086;29;20466;-74
2022/10/08 04:46:07;;;;;;;34.07;31.17;;;15.10;99.90;;;;;;4912883;29;20459;-74
2022/10/08 04:48:34;;;;;;;32.53;30.20;;;15.20;99.90;;;;;;4914595;29;20480;-74
2022/10/08 04:51:02;;;;;;;34.50;31.60;;;15.10;99.90;;;;;;4914531;29;20488;-74
2022/10/08 04:53:29;;;;;;;31.87;29.37;;;15.10;99.90;;;;;;4914849;29;20454;-73
2022/10/08 04:55:57;;;;;;;33.97;31.00;;;15.20;99.90;;;;;;4914518;29;20486;-73
2022/10/08 04:58:25;;;;;;;34.83;31.60;;;15.30;99.90;;;;;;4914516;29;20466;-73
2022/10/08 05:00:52;;;;;;;33.20;30.20;;;15.40;99.90;;;;;;4914537;29;20824;-73
2022/10/08 05:03:19;;;;;;;32.40;30.00;;;15.50;99.90;;;;;;4913634;29;20460;-74
2022/10/08 05:05:46;;;;;;;32.83;30.23;;;15.40;99.90;;;;;;4914537;29;20555;-73
2022/10/08 05:08:13;;;;;;;30.40;28.27;;;15.40;99.90;;;;;;4914606;29;20458;-73
2022/10/08 05:10:47;;;;;;;32.00;29.13;;;15.50;99.90;;;;;;4915074;29;20451;-73
2022/10/08 05:13:15;;;;;;;30.90;28.70;;;15.50;99.90;;;;;;4914398;29;20837;-73
2022/10/08 05:15:42;;;;;;;30.77;28.57;;;15.40;99.90;;;;;;4914392;29;20822;-72
2022/10/08 05:18:08;;;;;;;32.63;29.97;;;15.40;99.90;;;;;;4914262;29;20450;-73
2022/10/08 05:20:35;;;;;;;30.40;28.33;;;15.40;99.90;;;;;;4914052;29;20479;-73
2022/10/08 05:23:02;;;;;;;32.23;29.83;;;15.30;99.90;;;;;;4913870;29;20509;-72
2022/10/08 05:25:31;;;;;;;32.30;29.63;;;15.20;99.90;;;;;;4914571;29;20462;-72
2022/10/08 05:27:57;;;;;;;34.07;31.10;;;15.10;99.90;;;;;;4914613;29;20482;-73
2022/10/08 05:30:26;;;;;;;33.70;30.70;;;15.10;99.90;;;;;;4914205;29;20458;-73
2022/10/08 05:32:52;;;;;;;32.30;29.80;;;15.10;99.90;;;;;;4914220;29;20454;-73
2022/10/08 05:35:19;;;;;;;33.30;30.80;;;15.00;99.90;;;;;;4914111;29;20867;-73
2022/10/08 05:37:46;;;;;;;33.00;30.13;;;14.90;99.90;;;;;;4913823;29;20466;-74
2022/10/08 05:40:13;;;;;;;34.23;31.20;;;14.80;99.90;;;;;;4914381;29;20470;-72
2022/10/08 05:42:40;;;;;;;33.70;30.67;;;14.70;99.90;;;;;;4914168;29;20459;-73
2022/10/08 05:45:07;;;;;;;32.23;29.93;;;14.60;99.90;;;;;;4914059;29;20473;-73
2022/10/08 05:47:35;;;;;;;33.37;30.87;;;14.70;99.90;;;;;;4913751;29;20457;-74
2022/10/08 05:50:02;;;;;;;32.37;29.40;;;14.70;99.90;;;;;;4913613;29;20463;-73
2022/10/08 05:52:29;;;;;;;32.20;29.87;;;14.60;99.90;;;;;;4914045;29;20473;-73
2022/10/08 05:54:55;;;;;;;33.40;30.80;;;14.70;99.90;;;;;;4913795;29;20457;-73
2022/10/08 05:57:22;;;;;;;34.17;31.60;;;14.60;99.90;;;;;;4913535;29;20454;-73
2022/10/08 05:59:49;;;;;;;32.53;30.00;;;14.60;99.90;;;;;;4913580;29;20443;-72
2022/10/08 06:02:15;;;;;;;33.87;31.17;;;14.50;99.90;;;;;;4913509;29;20462;-72
2022/10/08 06:04:44;;;;;;;33.30;30.07;;;14.50;99.90;;;;;;4913843;29;20454;-73
2022/10/08 06:07:10;;;;;;;35.13;31.50;;;14.50;99.90;;;;;;4913366;29;20469;-73
2022/10/08 06:09:37;;;;;;;36.63;33.57;;;14.50;99.90;;;;;;4913247;29;20462;-73
2022/10/08 06:12:05;;;;;;;36.07;33.10;;;14.60;99.90;;;;;;4913133;29;20470;-73
2022/10/08 06:14:32;;;;;;;34.20;31.73;;;14.60;99.90;;;;;;4912965;29;21034;-75
2022/10/08 06:16:58;;;;;;;35.17;32.50;;;14.70;99.90;;;;;;4913531;29;20494;-73
2022/10/08 06:19:25;;;;;;;35.33;32.10;;;14.80;99.90;;;;;;4913390;29;20450;-73
2022/10/08 06:21:53;;;;;;;34.87;31.97;;;14.90;99.90;;;;;;4912998;29;20470;-73
2022/10/08 06:24:20;;;;;;;33.57;31.07;;;15.10;99.90;;;;;;4913013;29;20732;-74
2022/10/08 06:26:47;;;;;;;34.40;31.50;;;15.20;99.90;;;;;;4912975;29;20461;-74
2022/10/08 06:29:16;;;;;;;32.90;30.30;;;15.20;99.90;;;;;;4913205;29;20454;-74
2022/10/08 06:31:42;;;;;;;32.43;30.13;;;15.30;99.90;;;;;;4913067;29;20473;-75
2022/10/08 06:34:09;;;;;;;34.07;31.07;;;15.30;99.90;;;;;;4913360;29;20450;-74
2022/10/08 06:36:36;;;;;;;31.43;29.23;;;15.40;99.90;;;;;;4913065;29;20497;-74
2022/10/08 06:39:07;;;;;;;29.70;27.50;;;15.50;99.90;;;;;;4913203;29;20940;-73
2022/10/08 06:41:34;;;;;;;30.20;28.03;;;15.50;99.90;;;;;;4913140;29;20458;-73
2022/10/08 06:44:01;;;;;;;31.13;28.93;;;15.60;99.90;;;;;;4913184;29;20454;-74
2022/10/08 06:46:30;;;;;;;28.97;26.87;;;15.70;99.90;;;;;;4913529;29;20450;-74
2022/10/08 06:48:56;;;;;;;31.27;28.40;;;15.60;99.90;;;;;;4913224;29;20549;-75
2022/10/08 06:51:23;;;;;;;30.10;27.90;;;15.70;99.90;;;;;;4912855;29;20949;-75
2022/10/08 06:53:54;;;;;;;28.80;26.27;;;16.00;99.90;;;;;;4919054;29;20962;-74
2022/10/08 06:56:22;;;;;;;28.13;25.93;;;16.20;99.90;;;;;;4931990;29;20485;-74
2022/10/08 06:58:50;;;;;;;26.97;24.70;;;16.50;99.90;;;;;;4931688;29;20924;-74
2022/10/08 07:01:19;;;;;;;25.70;23.90;;;16.90;99.90;;;;;;4931807;29;20465;-73
2022/10/08 07:03:49;;;;;;;25.63;23.10;;;17.40;99.90;;;;;;4931907;29;20468;-75
2022/10/08 07:06:16;;;;;;;22.53;21.07;;;17.80;99.90;;;;;;4931949;29;20442;-71
2022/10/08 07:08:43;;;;;;;23.03;21.53;;;18.20;99.90;;;;;;4931799;29;20457;-74
2022/10/08 07:11:11;;;;;;;22.63;21.00;;;18.70;99.90;;;;;;4931515;29;20484;-73
2022/10/08 07:13:40;;;;;;;21.93;20.60;;;19.10;99.90;;;;;;4931240;29;20454;-73
2022/10/08 07:16:09;;;;;;;22.13;20.57;;;19.60;99.90;;;;;;4931283;29;20490;-73
2022/10/08 07:18:37;;;;;;;22.27;20.43;;;20.00;99.90;;;;;;4931307;29;20472;-74
2022/10/08 07:21:05;;;;;;;21.60;19.90;;;20.40;99.90;;;;;;4931471;29;20473;-74
2022/10/08 07:23:32;;;;;;;23.00;20.77;;;20.90;99.90;;;;;;4929144;29;20477;-73
2022/10/08 07:26:01;;;;;;;19.43;17.93;;;21.40;99.90;;;;;;4931063;29;20449;-73
2022/10/08 07:28:32;;;;;;;18.17;17.07;;;21.80;99.90;;;;;;4931573;29;20453;-75
2022/10/08 07:31:04;;;;;;;17.50;16.40;;;21.90;99.90;;;;;;4931629;29;20458;-73
2022/10/08 07:33:31;;;;;;;17.97;16.67;;;21.80;99.90;;;;;;4931094;29;20488;-71
2022/10/08 07:36:06;;;;;;;18.33;17.17;;;21.70;99.90;;;;;;4931390;29;20497;-72
2022/10/08 07:38:33;;;;;;;18.37;17.17;;;21.60;99.90;;;;;;4931091;29;20508;-74
2022/10/08 07:40:59;;;;;;;18.30;17.10;;;21.60;99.90;;;;;;4931397;29;20810;-73
2022/10/08 07:43:26;;;;;;;16.20;15.20;;;21.40;99.90;;;;;;4931307;29;20470;-73
2022/10/08 07:45:53;;;;;;;17.77;16.60;;;21.90;99.90;;;;;;4931133;29;20826;-73
2022/10/08 07:48:21;;;;;;;15.83;14.60;;;22.20;99.90;;;;;;4930919;29;20771;-73
2022/10/08 07:50:48;;;;;;;15.40;14.40;;;22.30;99.90;;;;;;4930981;29;20789;-73
2022/10/08 07:53:15;;;;;;;16.53;15.43;;;22.80;99.90;;;;;;4931324;29;20456;-74
2022/10/08 07:55:42;;;;;;;15.93;14.60;;;22.80;99.90;;;;;;4931157;29;20485;-72
2022/10/08 07:58:09;;;;;;;16.73;15.20;;;22.90;99.90;;;;;;4931135;29;20454;-73
2022/10/08 08:00:38;;;;;;;15.50;14.30;;;23.00;99.90;;;;;;4931104;29;20804;-74
2022/10/08 08:03:05;;;;;;;16.03;14.90;;;23.10;99.90;;;;;;4930972;29;20764;-74
2022/10/08 08:05:34;;;;;;;14.00;13.20;;;24.00;98.80;;;;;;4930872;29;20453;-74
2022/10/08 08:08:01;;;;;;;12.93;12.03;;;24.50;96.80;;;;;;4930880;29;20978;-75
2022/10/08 08:10:28;;;;;;;15.83;14.73;;;24.60;95.40;;;;;;4931206;29;20461;-74
2022/10/08 08:12:55;;;;;;;14.60;13.40;;;23.40;95.80;;;;;;4931204;29;20457;-75
2022/10/08 08:15:21;;;;;;;15.60;14.33;;;22.00;98.30;;;;;;4931262;29;20449;-75
2022/10/08 08:17:48;;;;;;;15.83;14.80;;;21.80;99.40;;;;;;4930884;29;20481;-75
2022/10/08 08:20:15;;;;;;;14.07;13.07;;;21.50;99.20;;;;;;4930856;29;20967;-76
2022/10/08 08:22:43;;;;;;;14.03;12.83;;;21.10;99.60;;;;;;4931230;29;20556;-75
2022/10/08 08:25:10;;;;;;;12.20;11.40;;;20.30;99.00;;;;;;4930828;29;20962;-76
2022/10/08 08:27:37;;;;;;;12.80;12.10;;;20.10;99.80;;;;;;4930549;29;20464;-73
2022/10/08 08:30:04;;;;;;;16.80;15.20;;;20.10;99.90;;;;;;4930866;29;20458;-75
2022/10/08 08:32:31;;;;;;;14.70;13.60;;;19.90;99.90;;;;;;4930681;29;20453;-75
2022/10/08 08:34:58;;;;;;;15.73;14.50;;;19.60;99.90;;;;;;4931121;29;20476;-75
2022/10/08 08:37:25;;;;;;;14.73;13.67;;;19.40;99.90;;;;;;4930897;29;20488;-76
2022/10/08 08:39:53;;;;;;;16.43;15.00;;;19.10;99.90;;;;;;4933567;29;20452;-74
2022/10/08 08:42:32;;;;;;;15.07;13.97;;;19.10;99.90;;;;;;4933991;29;20453;-74
2022/10/08 08:45:00;;;;;;;12.97;11.80;;;18.90;99.90;;;;;;4934691;29;20992;-76
2022/10/08 08:47:33;;;;;;;13.30;12.20;;;18.80;99.90;;;;;;4934657;29;20896;-76
2022/10/08 08:50:03;;;;;;;13.77;12.77;;;18.70;99.90;;;;;;4934376;29;20491;-75
2022/10/08 08:52:33;;;;;;;14.20;12.73;;;18.40;99.90;;;;;;4934076;29;20825;-73
2022/10/08 08:55:01;;;;;;;15.50;13.97;;;18.50;99.90;;;;;;4933897;29;20505;-73
2022/10/08 08:57:36;;;;;;;13.53;12.40;;;18.60;99.90;;;;;;4933823;29;20485;-73
2022/10/08 09:00:07;;;;;;;14.87;13.73;;;18.80;99.90;;;;;;4933811;29;20452;-73
2022/10/08 09:02:38;;;;;;;12.70;11.83;;;19.80;98.00;;;;;;4933662;29;21062;-74
2022/10/08 09:05:10;;;;;;;13.37;12.00;;;20.80;96.00;;;;;;4933758;29;20461;-73
2022/10/08 09:07:42;;;;;;;13.17;12.20;;;22.10;92.20;;;;;;4933443;29;20454;-74
2022/10/08 09:10:16;;;;;;;15.63;14.13;;;22.30;91.00;;;;;;4933700;29;20460;-74
2022/10/08 09:12:43;;;;;;;14.07;12.97;;;22.30;91.50;;;;;;4933882;29;20458;-74
2022/10/08 09:15:18;;;;;;;13.33;12.23;;;22.30;90.90;;;;;;4934003;29;20571;-72
2022/10/08 09:17:45;;;;;;;14.57;13.17;;;22.20;90.70;;;;;;4933951;29;20500;-73
2022/10/08 09:20:15;;;;;;;13.80;12.90;;;22.30;89.70;;;;;;4933749;29;20837;-74
2022/10/08 09:22:41;;;;;;;14.07;13.00;;;22.50;89.80;;;;;;4933801;29;20481;-74
2022/10/08 09:25:14;;;;;;;13.90;12.90;;;22.40;89.60;;;;;;4933440;29;20555;-75
2022/10/08 09:27:46;;;;;;;14.20;13.20;;;22.40;90.30;;;;;;4933738;29;20458;-74
2022/10/08 09:30:32;;;;;;;13.90;12.90;;;23.20;89.50;;;;;;4933493;29;20457;-75
2022/10/08 09:33:01;;;;;;;13.70;12.90;;;23.70;85.70;;;;;;4933671;29;20473;-74
2022/10/08 09:35:29;;;;;;;14.23;13.17;;;24.70;83.30;;;;;;4933264;29;20895;-75
2022/10/08 09:37:56;;;;;;;14.33;13.33;;;24.80;80.00;;;;;;4933357;29;20489;-74
2022/10/08 09:40:26;;;;;;;15.00;13.90;;;25.00;79.00;;;;;;4933180;29;20876;-74
2022/10/08 09:43:14;;;;;;;14.60;13.70;;;25.50;77.30;;;;;;4932976;29;20772;-74
2022/10/08 09:45:43;;;;;;;14.00;13.17;;;26.50;75.10;;;;;;4933293;29;20468;-75
2022/10/08 09:48:21;;;;;;;14.00;13.00;;;26.10;71.80;;;;;;4933092;29;20476;-75
2022/10/08 09:50:59;;;;;;;13.13;12.27;;;26.10;71.90;;;;;;4932341;29;20935;-75
2022/10/08 09:53:29;;;;;;;14.33;13.47;;;26.40;70.40;;;;;;4932840;29;20454;-75
2022/10/08 09:56:00;;;;;;;13.63;12.73;;;26.00;70.50;;;;;;4932895;29;20461;-75
2022/10/08 09:58:30;;;;;;;14.67;13.20;;;26.20;68.40;;;;;;4933077;29;20461;-75
2022/10/08 10:01:04;;;;;;;13.30;12.20;;;25.40;71.30;;;;;;4932926;29;20935;-75
2022/10/08 10:03:32;;;;;;;13.93;12.60;;;25.40;71.90;;;;;;4932925;29;20792;-74
2022/10/08 10:06:00;;;;;;;16.30;14.67;;;25.20;72.60;;;;;;4932977;29;20457;-74
2022/10/08 10:08:47;;;;;;;14.70;13.40;;;24.40;73.60;;;;;;4932642;29;20469;-76
2022/10/08 10:11:21;;;;;;;13.00;11.80;;;23.90;76.90;;;;;;4932754;29;20527;-75
2022/10/08 10:13:50;;;;;;;13.60;12.60;;;23.80;76.70;;;;;;4932360;29;20459;-74
2022/10/08 10:16:20;;;;;;;13.53;12.47;;;23.20;77.10;;;;;;4932006;29;20457;-74
2022/10/08 10:18:55;;;;;;;13.10;12.20;;;22.80;78.20;;;;;;4932238;29;20990;-73
2022/10/08 10:21:30;;;;;;;13.07;12.30;;;23.50;79.40;;;;;;4932173;29;20477;-75
2022/10/08 10:24:21;;;;;;;13.23;12.33;;;24.80;74.70;;;;;;4932450;29;20533;-76
2022/10/08 10:26:52;;;;;;;12.30;11.60;;;24.70;72.80;;;;;;4932223;29;20457;-75
2022/10/08 10:29:21;;;;;;;13.97;12.90;;;23.90;75.30;;;;;;4932281;29;20469;-74
2022/10/08 10:31:54;;;;;;;13.53;12.13;;;23.70;75.50;;;;;;4932529;29;20457;-74
2022/10/08 10:34:24;;;;;;;13.07;12.27;;;24.50;74.90;;;;;;4932263;29;20560;-75
2022/10/08 10:36:55;;;;;;;14.37;13.17;;;25.00;74.20;;;;;;4932024;29;20512;-76
2022/10/08 10:39:28;;;;;;;13.27;12.60;;;25.90;71.00;;;;;;4932085;29;20983;-75
2022/10/08 10:42:07;;;;;;;13.70;12.37;;;27.10;66.70;;;;;;4932133;29;20450;-74
2022/10/08 10:44:42;;;;;;;15.17;13.67;;;27.70;64.90;;;;;;4932120;29;20548;-75
2022/10/08 10:47:09;;;;;;;14.00;13.20;;;27.60;65.30;;;;;;4932151;29;20460;-75
2022/10/08 10:49:41;;;;;;;13.00;12.00;;;26.90;65.60;;;;;;4932132;29;20461;-75
2022/10/08 10:52:32;;;;;;;13.17;12.53;;;26.00;66.30;;;;;;4932045;29;20457;-74
2022/10/08 10:55:19;;;;;;;14.00;13.00;;;25.60;67.70;;;;;;4932269;29;20827;-74
2022/10/08 10:58:06;;;;;;;12.93;12.13;;;26.10;66.80;;;;;;4931717;29;20855;-74
2022/10/08 11:00:42;;;;;;;14.10;12.97;;;25.90;65.30;;;;;;4931521;29;20468;-75
2022/10/08 11:03:20;;;;;;;13.77;12.70;;;26.20;63.60;;;;;;4932175;29;20457;-76
2022/10/08 11:05:53;;;;;;;14.30;13.03;;;25.80;64.50;;;;;;4932050;29;20445;-76
2022/10/08 11:08:33;;;;;;;13.87;12.77;;;25.80;63.60;;;;;;4932090;29;20442;-76
2022/10/08 11:11:12;;;;;;;14.03;13.10;;;26.40;63.70;;;;;;4932129;29;20461;-76
2022/10/08 11:14:02;;;;;;;13.27;12.50;;;26.90;60.00;;;;;;4931796;29;20453;-75
2022/10/08 11:16:47;;;;;;;14.20;13.20;;;27.60;59.50;;;;;;4931614;29;20493;-75
2022/10/08 11:19:33;;;;;;;13.60;12.40;;;27.90;58.10;;;;;;4931873;29;20457;-76
2022/10/08 11:22:06;;;;;;;13.17;12.10;;;27.80;58.90;;;;;;4931496;29;20484;-75
2022/10/08 11:24:55;;;;;;;13.20;12.20;;;27.10;58.80;;;;;;4931470;29;20484;-75
2022/10/08 11:27:30;;;;;;;13.13;12.13;;;27.40;58.20;;;;;;4931438;29;20561;-76
2022/10/08 11:30:04;;;;;;;12.70;11.90;;;27.80;58.00;;;;;;4931910;29;20460;-74
2022/10/08 11:32:31;;;;;;;13.73;12.83;;;27.20;59.00;;;;;;4931494;29;20464;-75
2022/10/08 11:35:12;;;;;;;13.53;12.57;;;26.30;60.00;;;;;;4931719;29;20936;-74
2022/10/08 11:37:43;;;;;;;13.73;12.50;;;25.80;61.10;;;;;;4931521;29;20493;-75
2022/10/08 11:40:18;;;;;;;13.97;12.40;;;26.00;60.20;;;;;;4931579;29;20453;-75
2022/10/08 11:42:50;;;;;;;12.57;11.60;;;26.00;59.30;;;;;;4931344;29;20456;-76
2022/10/08 11:45:35;;;;;;;13.33;12.23;;;25.90;60.20;;;;;;4931544;29;20458;-75
2022/10/08 11:48:30;;;;;;;12.27;11.37;;;26.00;60.40;;;;;;4931267;29;20456;-74
2022/10/08 11:51:27;;;;;;;12.87;11.90;;;26.90;59.40;;;;;;4931531;29;20999;-75
2022/10/08 11:54:14;;;;;;;15.00;13.80;;;27.80;56.50;;;;;;4931439;29;20442;-73
2022/10/08 11:56:45;;;;;;;12.87;11.87;;;26.80;56.20;;;;;;4931706;29;20797;-75
2022/10/08 11:59:43;;;;;;;13.30;12.03;;;25.90;58.20;;;;;;4931669;29;20461;-75
2022/10/08 12:02:23;;;;;;;12.60;11.70;;;25.80;58.80;;;;;;4872872;29;20939;-76
2022/10/08 12:04:53;;;;;;;14.20;12.83;;;25.80;58.90;;;;;;4923266;29;20449;-74
2022/10/08 12:07:25;;;;;;;12.50;11.40;;;25.70;59.60;;;;;;4931112;29;20805;-74
2022/10/08 12:10:24;;;;;;;12.57;11.77;;;25.60;60.80;;;;;;4931281;29;20962;-74
2022/10/08 12:13:24;;;;;;;12.73;11.80;;;25.80;59.50;;;;;;4932616;29;20648;-73
2022/10/08 12:16:03;;;;;;;11.70;11.00;;;25.80;59.60;;;;;;4934595;29;20820;-74
2022/10/08 12:18:43;;;;;;;12.60;11.80;;;25.90;58.60;;;;;;4934612;29;20851;-74
2022/10/08 12:21:50;;;;;;;13.40;12.40;;;25.50;59.70;;;;;;4934653;29;20552;-74
2022/10/08 12:24:51;;;;;;;11.93;11.07;;;26.10;60.00;;;;;;4934616;29;20457;-75
2022/10/08 12:27:29;;;;;;;13.03;12.23;;;27.70;57.70;;;;;;4934592;29;20448;-76
2022/10/08 12:29:59;;;;;;;11.13;10.60;;;26.90;57.00;;;;;;4934883;29;20449;-75
2022/10/08 12:32:27;;;;;;;12.60;11.90;;;26.70;58.40;;;;;;4934357;29;20449;-75
2022/10/08 12:34:54;;;;;;;13.53;12.77;;;26.30;57.50;;;;;;4934255;29;20460;-73
2022/10/08 12:37:49;;;;;;;12.50;11.60;;;25.30;59.30;;;;;;4934258;29;21010;-75
2022/10/08 12:40:30;;;;;;;12.53;11.80;;;24.50;59.90;;;;;;4934283;29;20453;-74
2022/10/08 12:43:08;;;;;;;12.20;11.27;;;23.20;63.40;;;;;;4934973;29;20520;-76
2022/10/08 12:45:47;;;;;;;13.10;12.30;;;23.00;65.80;;;;;;4934436;29;20449;-75
2022/10/08 12:48:22;;;;;;;13.73;12.40;;;23.60;65.20;;;;;;4935050;29;20914;-74
2022/10/08 12:50:56;;;;;;;13.70;12.50;;;24.10;66.50;;;;;;4934176;29;20461;-75
2022/10/08 12:53:24;;;;;;;12.50;11.70;;;25.00;64.80;;;;;;4934296;29;20457;-74
2022/10/08 12:55:55;;;;;;;12.60;11.70;;;24.90;63.40;;;;;;4934375;29;20453;-75
2022/10/08 12:58:26;;;;;;;12.70;11.63;;;25.30;63.00;;;;;;4934530;29;20596;-76
2022/10/08 13:00:55;;;;;;;11.23;10.30;;;25.10;61.90;;;;;;4934376;29;20484;-76
2022/10/08 13:03:22;;;;;;;11.60;11.00;;;24.70;62.50;;;;;;4934571;29;20477;-73
2022/10/08 13:05:49;;;;;;;11.33;10.70;;;23.70;63.00;;;;;;4933996;29;20840;-74
2022/10/08 13:08:33;;;;;;;12.23;11.50;;;23.30;63.70;;;;;;4933722;29;20469;-73
2022/10/08 13:11:04;;;;;;;11.53;10.83;;;23.20;64.30;;;;;;4933998;29;20548;-74
2022/10/08 13:13:49;;;;;;;12.03;11.30;;;22.80;64.70;;;;;;4932056;29;20819;-75
2022/10/08 13:16:19;;;;;;;11.63;10.87;;;22.60;64.70;;;;;;4933898;29;20509;-75
2022/10/08 13:18:48;;;;;;;12.97;11.90;;;22.50;65.80;;;;;;4934118;29;20489;-75
2022/10/08 13:21:36;;;;;;;12.50;11.20;;;22.20;65.70;;;;;;4933664;29;20484;-75
2022/10/08 13:24:24;;;;;;;11.97;11.37;;;22.30;66.90;;;;;;4932788;29;20481;-74
2022/10/08 13:26:54;;;;;;;11.20;10.73;;;22.10;66.50;;;;;;4933771;29;20524;-75
2022/10/08 13:29:32;;;;;;;11.53;10.70;;;21.70;67.70;;;;;;4933878;29;20548;-75
2022/10/08 13:32:01;;;;;;;11.40;10.50;;;21.40;69.50;;;;;;4915533;29;20469;-75
2022/10/08 13:34:30;;;;;;;11.70;11.20;;;21.10;70.70;;;;;;4913268;29;20467;-73
2022/10/08 13:36:59;;;;;;;11.33;10.50;;;20.90;71.20;;;;;;4909177;29;20447;-73
2022/10/08 13:39:29;;;;;;;11.53;10.60;;;20.70;72.00;;;;;;4913965;29;20486;-74
2022/10/08 13:41:59;;;;;;;11.77;10.97;;;20.50;72.10;;;;;;4912701;29;20446;-74
2022/10/08 13:44:27;;;;;;;11.50;10.63;;;20.40;72.80;;;;;;4912455;29;20462;-74
2022/10/08 13:46:54;;;;;;;11.67;10.63;;;20.30;72.60;;;;;;4913940;29;20458;-75
2022/10/08 13:49:23;;;;;;;11.37;10.67;;;20.30;73.50;;;;;;4913736;29;20454;-74
2022/10/08 13:51:50;;;;;;;10.87;10.10;;;20.30;73.40;;;;;;4914488;29;20450;-74
2022/10/08 13:54:22;;;;;;;11.33;10.63;;;20.30;75.10;;;;;;4913967;29;20785;-74
2022/10/08 13:56:49;;;;;;;10.70;9.80;;;20.40;74.70;;;;;;4914156;29;21173;-74
2022/10/08 13:59:18;;;;;;;11.70;10.90;;;20.60;75.00;;;;;;4913901;29;20501;-73
2022/10/08 14:01:45;;;;;;;11.60;10.70;;;20.70;77.20;;;;;;4914410;29;20473;-75
2022/10/08 14:04:12;;;;;;;11.93;11.07;;;20.80;78.90;;;;;;4914470;29;20812;-74
2022/10/08 14:06:40;;;;;;;10.80;10.20;;;20.70;78.30;;;;;;4913590;29;20459;-74
2022/10/08 14:09:12;;;;;;;10.00;9.50;;;20.60;79.70;;;;;;4911855;29;20457;-74
2022/10/08 14:11:40;;;;;;;8.77;8.40;;;20.20;80.30;;;;;;4913780;29;20707;-74
2022/10/08 14:14:08;;;;;;;10.77;10.10;;;19.80;79.90;;;;;;4913523;29;21019;-74
2022/10/08 14:16:36;;;;;;;10.43;9.63;;;19.50;82.10;;;;;;4913745;29;20485;-73
2022/10/08 14:19:03;;;;;;;10.07;9.57;;;19.50;84.20;;;;;;4914201;29;20501;-74
2022/10/08 14:21:30;;;;;;;10.83;9.87;;;19.30;86.60;;;;;;4908873;29;20474;-75
2022/10/08 14:23:56;;;;;;;10.80;10.30;;;19.30;89.00;;;;;;4913259;29;20868;-74
2022/10/08 14:26:23;;;;;;;11.47;10.60;;;19.30;89.90;;;;;;4913294;29;20454;-74
2022/10/08 14:28:50;;;;;;;10.90;10.10;;;19.30;90.20;;;;;;4912353;29;20454;-73
2022/10/08 14:31:16;;;;;;;11.47;10.70;;;19.20;90.40;;;;;;4913557;29;20976;-74
2022/10/08 14:33:45;;;;;;;13.40;12.20;;;19.00;90.90;;;;;;4913288;29;20458;-72
2022/10/08 14:36:16;;;;;;;10.53;10.03;;;18.80;91.30;;;;;;4913056;29;20458;-73
2022/10/08 14:38:42;;;;;;;11.23;10.60;;;18.70;91.30;;;;;;4913210;29;20493;-73
2022/10/08 14:41:12;;;;;;;12.63;11.93;;;18.60;91.90;;;;;;4913336;29;20561;-75
2022/10/08 14:43:38;;;;;;;11.97;11.37;;;18.60;92.30;;;;;;4913194;29;20480;-74
2022/10/08 14:46:05;;;;;;;11.00;10.40;;;18.60;93.00;;;;;;4913517;29;20458;-74
2022/10/08 14:48:32;;;;;;;11.03;10.53;;;18.60;93.10;;;;;;4913687;29;20465;-74
2022/10/08 14:51:01;;;;;;;10.73;10.13;;;18.60;93.50;;;;;;4912828;29;20542;-74
2022/10/08 14:53:27;;;;;;;10.37;9.90;;;18.60;93.50;;;;;;4912196;29;20960;-74
2022/10/08 14:55:54;;;;;;;10.27;9.70;;;18.60;93.60;;;;;;4912569;29;20809;-74
2022/10/08 14:58:21;;;;;;;11.00;10.30;;;18.50;94.00;;;;;;4912554;29;21095;-74
2022/10/08 15:00:53;;;;;;;10.27;9.77;;;18.50;93.80;;;;;;4913255;29;20451;-74
2022/10/08 15:03:20;;;;;;;10.07;9.63;;;18.60;93.60;;;;;;4913314;29;20553;-74
2022/10/08 15:05:47;;;;;;;10.70;10.10;;;18.60;92.80;;;;;;4906019;29;20550;-74
2022/10/08 15:08:16;;;;;;;10.27;9.87;;;18.60;92.80;;;;;;4893863;29;20451;-73
2022/10/08 15:10:42;;;;;;;10.90;10.40;;;18.30;92.20;;;;;;4907352;29;20463;-73
2022/10/08 15:13:09;;;;;;;10.77;10.07;;;18.30;93.00;;;;;;4918270;29;20462;-75
2022/10/08 15:15:39;;;;;;;10.93;10.43;;;18.10;93.50;;;;;;4912519;29;20459;-73
2022/10/08 15:18:06;;;;;;;10.90;10.47;;;17.90;94.20;;;;;;4913187;29;20494;-74
2022/10/08 15:20:33;;;;;;;11.13;10.07;;;17.90;94.90;;;;;;4912516;29;21043;-73
2022/10/08 15:23:00;;;;;;;11.17;10.57;;;17.80;95.20;;;;;;4912569;29;20490;-74
2022/10/08 15:25:28;;;;;;;10.20;9.70;;;17.70;95.70;;;;;;4912744;29;20450;-73
2022/10/08 15:27:55;;;;;;;10.07;9.57;;;17.70;96.30;;;;;;4912735;29;20463;-74
2022/10/08 15:30:23;;;;;;;9.93;9.27;;;17.60;96.20;;;;;;4912252;29;20462;-74
2022/10/08 15:32:49;;;;;;;10.00;9.60;;;17.50;96.80;;;;;;4912564;29;21100;-74
2022/10/08 15:35:18;;;;;;;11.30;10.63;;;17.50;97.60;;;;;;4912829;29;20481;-74
2022/10/08 15:37:45;;;;;;;9.90;9.40;;;17.50;97.70;;;;;;4912392;29;20461;-74
2022/10/08 15:40:12;;;;;;;10.90;10.30;;;17.50;97.80;;;;;;4911133;29;20772;-74
2022/10/08 15:42:40;;;;;;;9.80;9.40;;;17.50;97.90;;;;;;4912427;29;20828;-74
2022/10/08 15:45:07;;;;;;;10.30;9.90;;;17.50;97.80;;;;;;4912901;29;20492;-74
2022/10/08 15:47:34;;;;;;;10.67;10.27;;;17.40;98.30;;;;;;4914160;29;20454;-73
2022/10/08 15:50:01;;;;;;;10.47;9.90;;;17.40;98.20;;;;;;4916597;29;20450;-73
2022/10/08 15:52:28;;;;;;;10.90;10.30;;;17.40;98.60;;;;;;4916555;29;20450;-74
2022/10/08 15:54:54;;;;;;;13.17;12.00;;;17.50;98.80;;;;;;4916443;29;20461;-74
2022/10/08 15:57:21;;;;;;;11.00;10.30;;;17.60;98.80;;;;;;4914947;29;20453;-73
2022/10/08 15:59:49;;;;;;;10.73;10.23;;;17.60;98.80;;;;;;4914492;29;21015;-73
2022/10/08 16:02:17;;;;;;;11.70;11.10;;;17.70;99.10;;;;;;4915023;29;20465;-73
2022/10/08 16:04:45;;;;;;;10.40;9.67;;;17.70;98.90;;;;;;4897821;29;20463;-74
2022/10/08 16:07:12;;;;;;;11.20;10.70;;;17.70;98.40;;;;;;4895376;29;20738;-74
2022/10/08 16:09:38;;;;;;;11.70;11.00;;;17.70;98.30;;;;;;4897868;29;20459;-75
2022/10/08 16:12:05;;;;;;;11.70;11.10;;;17.60;98.50;;;;;;4897677;29;20462;-75
2022/10/08 16:14:32;;;;;;;12.10;11.17;;;17.60;98.60;;;;;;4898387;29;20459;-75
2022/10/08 16:17:00;;;;;;;10.93;10.47;;;17.60;98.90;;;;;;4905164;29;20450;-75
2022/10/08 16:19:27;;;;;;;10.37;9.77;;;17.50;99.40;;;;;;4907853;29;20482;-74
2022/10/08 16:21:56;;;;;;;12.20;11.60;;;17.40;99.30;;;;;;4911452;29;20830;-75
2022/10/08 16:24:23;;;;;;;10.83;10.30;;;17.30;99.20;;;;;;4916668;29;20454;-75
2022/10/08 16:26:50;;;;;;;11.43;10.90;;;17.30;99.40;;;;;;4916748;29;20461;-75
2022/10/08 16:29:18;;;;;;;10.10;9.40;;;17.20;99.50;;;;;;4916525;29;20446;-75
2022/10/08 16:31:46;;;;;;;16.00;11.03;;;17.20;99.90;;;;;;4917011;29;20458;-74
2022/10/08 16:34:16;;;;;;;10.30;9.60;;;17.10;99.90;;;;;;4916979;29;20892;-73
2022/10/08 16:36:44;;;;;;;10.60;10.17;;;17.00;99.90;;;;;;4916817;29;20903;-74
2022/10/08 16:39:13;;;;;;;10.50;9.90;;;16.90;99.90;;;;;;4911731;29;20483;-74
2022/10/08 16:41:40;;;;;;;10.50;10.10;;;16.70;99.90;;;;;;4915748;29;20450;-74
2022/10/08 16:44:09;;;;;;;12.40;11.70;;;16.60;99.90;;;;;;4916427;29;20454;-74
2022/10/08 16:46:38;;;;;;;11.70;10.80;;;16.50;99.90;;;;;;4916495;29;20853;-74
2022/10/08 16:49:06;;;;;;;11.33;10.60;;;16.40;99.90;;;;;;4915953;29;20853;-73
2022/10/08 16:51:36;;;;;;;11.43;10.87;;;16.40;99.90;;;;;;4907578;29;20444;-74
2022/10/08 16:54:04;;;;;;;11.60;10.90;;;16.30;99.90;;;;;;4905909;29;20446;-74
2022/10/08 16:56:32;;;;;;;10.93;10.53;;;16.30;99.90;;;;;;4904928;29;20456;-74
2022/10/08 16:59:03;;;;;;;10.50;9.90;;;16.30;99.90;;;;;;4905435;29;20478;-73
2022/10/08 17:01:31;;;;;;;11.37;10.67;;;16.20;99.90;;;;;;4907219;29;20449;-75
2022/10/08 17:03:58;;;;;;;11.10;10.43;;;16.20;99.90;;;;;;4905850;29;20478;-75
2022/10/08 17:06:26;;;;;;;11.50;10.97;;;16.00;99.90;;;;;;4905412;29;20446;-75